PWSweather.com
Personal Weather Stations
Station Observations
SUBOTICARS
SuboticaYU

SuboticaYU

Lat: 46.1296717, Lon: 19.641551

Elevation: 361

Station Type: Nexus

http://sumeteo.info

High Low Average
Temperature 34.0°F1.1°C 14.5°F-9.7°C 27.1°F-2.7°C
Dew Point 32.4°F0.2°C 7.2°F-13.8°C 22.9°F-5.1°C
Winds 8.1 mph 13.0 kmh Calm Calm 4.0 mph WSW6.4 kmh WSW
Wind Gusts 10.4 mph16.7 kmh -- 5.0 mph8.0 kmh
Humidity 95% 72% 84%
Pressure 29.94 in1013.9 mb 29.57 in1001.4 mb -
Precipitation 0.36 in9.1 mm - -
Hour Temp Dew Point Humidity Winds Wind Gusts Pressure Precip Precip Rate Daily Precip Total
12:00 AM 16.7°F-8.5°C 9.5°F-12.5°C 73% 1.2 mph WNW1.9 kmh WNW 1.2 mph1.9 kmh 29.94 in1013.9 mb - 0.00 in0.0 mm 0.00 in0.0 mm
12:10 AM 16.3°F-8.7°C 9.2°F-12.7°C 73% Calm Calm -- 29.94 in1013.9 mb - 0.00 in0.0 mm 0.00 in0.0 mm
12:15 AM 16.0°F-8.9°C 8.6°F-13.0°C 72% Calm Calm -- 29.94 in1013.9 mb - 0.00 in0.0 mm 0.00 in0.0 mm
12:20 AM 15.8°F-9.0°C 8.4°F-13.1°C 72% Calm Calm -- 29.93 in1013.5 mb - 0.00 in0.0 mm 0.00 in0.0 mm
12:25 AM 15.8°F-9.0°C 8.4°F-13.1°C 72% Calm Calm -- 29.93 in1013.5 mb - 0.00 in0.0 mm 0.00 in0.0 mm
12:30 AM 15.8°F-9.0°C 8.7°F-12.9°C 73% 1.2 mph WNW1.9 kmh WNW 2.3 mph3.7 kmh 29.93 in1013.5 mb - 0.00 in0.0 mm 0.00 in0.0 mm
12:35 AM 15.4°F-9.2°C 8.0°F-13.3°C 72% 1.2 mph WNW1.9 kmh WNW 1.2 mph1.9 kmh 29.93 in1013.5 mb - 0.00 in0.0 mm 0.00 in0.0 mm
12:40 AM 15.3°F-9.3°C 7.8°F-13.4°C 72% Calm Calm -- 29.93 in1013.5 mb - 0.00 in0.0 mm 0.00 in0.0 mm
12:45 AM 15.3°F-9.3°C 7.8°F-13.4°C 72% Calm Calm -- 29.93 in1013.5 mb - 0.00 in0.0 mm 0.00 in0.0 mm
12:50 AM 15.1°F-9.4°C 7.7°F-13.5°C 72% Calm Calm 1.2 mph1.9 kmh 29.93 in1013.5 mb - 0.00 in0.0 mm 0.00 in0.0 mm
12:55 AM 15.1°F-9.4°C 7.7°F-13.5°C 72% Calm Calm 1.2 mph1.9 kmh 29.93 in1013.5 mb - 0.00 in0.0 mm 0.00 in0.0 mm
01:00 AM 15.1°F-9.4°C 8.0°F-13.3°C 73% 1.2 mph WNW1.9 kmh WNW 1.2 mph1.9 kmh 29.93 in1013.5 mb - 0.00 in0.0 mm 0.00 in0.0 mm
01:10 AM 14.7°F-9.6°C 7.6°F-13.6°C 73% 1.2 mph WNW1.9 kmh WNW 2.3 mph3.7 kmh 29.93 in1013.5 mb - 0.00 in0.0 mm 0.00 in0.0 mm
01:15 AM 14.5°F-9.7°C 7.2°F-13.8°C 72% 1.2 mph WNW1.9 kmh WNW 1.2 mph1.9 kmh 29.93 in1013.5 mb - 0.00 in0.0 mm 0.00 in0.0 mm
01:20 AM 14.5°F-9.7°C 7.2°F-13.8°C 72% 1.2 mph WNW1.9 kmh WNW 1.2 mph1.9 kmh 29.93 in1013.5 mb - 0.00 in0.0 mm 0.00 in0.0 mm
01:25 AM 14.5°F-9.7°C 7.2°F-13.8°C 72% 1.2 mph WNW1.9 kmh WNW 2.3 mph3.7 kmh 29.93 in1013.5 mb - 0.00 in0.0 mm 0.00 in0.0 mm
01:30 AM 14.5°F-9.7°C 7.2°F-13.8°C 72% Calm Calm -- 29.93 in1013.5 mb - 0.00 in0.0 mm 0.00 in0.0 mm
01:35 AM 14.7°F-9.6°C 7.6°F-13.6°C 73% 1.2 mph WNW1.9 kmh WNW 2.3 mph3.7 kmh 29.92 in1013.2 mb - 0.00 in0.0 mm 0.00 in0.0 mm
01:40 AM 14.7°F-9.6°C 7.6°F-13.6°C 73% 1.2 mph WNW1.9 kmh WNW 2.3 mph3.7 kmh 29.92 in1013.2 mb - 0.00 in0.0 mm 0.00 in0.0 mm
01:45 AM 14.9°F-9.5°C 7.8°F-13.4°C 73% 1.2 mph WNW1.9 kmh WNW 1.2 mph1.9 kmh 29.92 in1013.2 mb - 0.00 in0.0 mm 0.00 in0.0 mm
01:50 AM 15.6°F-9.1°C 8.8°F-12.9°C 74% Calm Calm -- 29.92 in1013.2 mb - 0.00 in0.0 mm 0.00 in0.0 mm
01:55 AM 15.6°F-9.1°C 8.8°F-12.9°C 74% Calm Calm 1.2 mph1.9 kmh 29.92 in1013.2 mb - 0.00 in0.0 mm 0.00 in0.0 mm
02:00 AM 15.6°F-9.1°C 9.1°F-12.7°C 75% Calm Calm -- 29.92 in1013.2 mb - 0.00 in0.0 mm 0.00 in0.0 mm
02:10 AM 16.7°F-8.5°C 10.1°F-12.2°C 75% 1.2 mph WNW1.9 kmh WNW 1.2 mph1.9 kmh 29.92 in1013.2 mb - 0.00 in0.0 mm 0.00 in0.0 mm
02:15 AM 16.9°F-8.4°C 10.3°F-12.1°C 75% Calm Calm -- 29.91 in1012.9 mb - 0.00 in0.0 mm 0.00 in0.0 mm
02:20 AM 17.5°F-8.1°C 11.2°F-11.6°C 76% 1.2 mph WNW1.9 kmh WNW 2.3 mph3.7 kmh 29.91 in1012.9 mb - 0.00 in0.0 mm 0.00 in0.0 mm
02:25 AM 17.8°F-7.9°C 11.5°F-11.4°C 76% 1.2 mph WNW1.9 kmh WNW 2.3 mph3.7 kmh 29.91 in1012.9 mb - 0.00 in0.0 mm 0.00 in0.0 mm
02:30 AM 18.3°F-7.6°C 12.6°F-10.8°C 78% 2.3 mph W3.7 kmh W 3.5 mph5.6 kmh 29.91 in1012.9 mb - 0.00 in0.0 mm 0.00 in0.0 mm
02:35 AM 18.3°F-7.6°C 12.6°F-10.8°C 78% 1.2 mph WNW1.9 kmh WNW 2.3 mph3.7 kmh 29.91 in1012.9 mb - 0.00 in0.0 mm 0.00 in0.0 mm
02:40 AM 18.7°F-7.4°C 13.0°F-10.6°C 78% 1.2 mph WNW1.9 kmh WNW 2.3 mph3.7 kmh 29.91 in1012.9 mb - 0.00 in0.0 mm 0.00 in0.0 mm
02:45 AM 19.0°F-7.2°C 13.3°F-10.4°C 78% 1.2 mph WNW1.9 kmh WNW 1.2 mph1.9 kmh 29.91 in1012.9 mb - 0.00 in0.0 mm 0.00 in0.0 mm
02:50 AM 19.4°F-7.0°C 13.7°F-10.2°C 78% 1.2 mph WNW1.9 kmh WNW 1.2 mph1.9 kmh 29.91 in1012.9 mb - 0.00 in0.0 mm 0.00 in0.0 mm
02:55 AM 19.6°F-6.9°C 13.9°F-10.1°C 78% 1.2 mph WNW1.9 kmh WNW 1.2 mph1.9 kmh 29.91 in1012.9 mb - 0.00 in0.0 mm 0.00 in0.0 mm
03:00 AM 19.8°F-6.8°C 14.0°F-10.0°C 78% Calm Calm -- 29.90 in1012.5 mb - 0.00 in0.0 mm 0.00 in0.0 mm
03:10 AM 20.3°F-6.5°C 14.5°F-9.7°C 78% Calm Calm 1.2 mph1.9 kmh 29.90 in1012.5 mb - 0.00 in0.0 mm 0.00 in0.0 mm
03:15 AM 20.5°F-6.4°C 14.7°F-9.6°C 78% Calm Calm -- 29.90 in1012.5 mb - 0.00 in0.0 mm 0.00 in0.0 mm
03:20 AM 20.7°F-6.3°C 14.9°F-9.5°C 78% 1.2 mph WNW1.9 kmh WNW 1.2 mph1.9 kmh 29.89 in1012.2 mb - 0.00 in0.0 mm 0.00 in0.0 mm
03:25 AM 20.9°F-6.2°C 15.4°F-9.2°C 79% 1.2 mph WSW1.9 kmh WSW 2.3 mph3.7 kmh 29.89 in1012.2 mb - 0.00 in0.0 mm 0.00 in0.0 mm
03:30 AM 21.0°F-6.1°C 15.5°F-9.2°C 79% 1.2 mph WSW1.9 kmh WSW 1.2 mph1.9 kmh 29.89 in1012.2 mb - 0.00 in0.0 mm 0.00 in0.0 mm
03:35 AM 21.6°F-5.8°C 16.1°F-8.8°C 79% 1.2 mph WSW1.9 kmh WSW 2.3 mph3.7 kmh 29.88 in1011.9 mb - 0.00 in0.0 mm 0.00 in0.0 mm
03:40 AM 21.7°F-5.7°C 16.2°F-8.8°C 79% 1.2 mph WSW1.9 kmh WSW 2.3 mph3.7 kmh 29.88 in1011.9 mb - 0.00 in0.0 mm 0.00 in0.0 mm
03:45 AM 22.1°F-5.5°C 16.6°F-8.6°C 79% 2.3 mph WSW3.7 kmh WSW 3.5 mph5.6 kmh 29.88 in1011.9 mb - 0.00 in0.0 mm 0.00 in0.0 mm
03:50 AM 22.5°F-5.3°C 17.2°F-8.2°C 80% 2.3 mph WSW3.7 kmh WSW 2.3 mph3.7 kmh 29.87 in1011.5 mb - 0.00 in0.0 mm 0.00 in0.0 mm
03:55 AM 22.6°F-5.2°C 17.4°F-8.1°C 80% 2.3 mph WSW3.7 kmh WSW 2.3 mph3.7 kmh 29.87 in1011.5 mb - 0.00 in0.0 mm 0.00 in0.0 mm
04:00 AM 23.0°F-5.0°C 17.7°F-7.9°C 80% 2.3 mph SW3.7 kmh SW 3.5 mph5.6 kmh 29.87 in1011.5 mb - 0.00 in0.0 mm 0.00 in0.0 mm
04:10 AM 23.4°F-4.8°C 18.1°F-7.7°C 80% 2.3 mph WSW3.7 kmh WSW 3.5 mph5.6 kmh 29.86 in1011.2 mb - 0.00 in0.0 mm 0.00 in0.0 mm
04:15 AM 23.4°F-4.8°C 18.1°F-7.7°C 80% 3.5 mph SW5.6 kmh SW 3.5 mph5.6 kmh 29.86 in1011.2 mb - 0.00 in0.0 mm 0.00 in0.0 mm
04:20 AM 23.5°F-4.7°C 18.3°F-7.6°C 80% 2.3 mph SW3.7 kmh SW 3.5 mph5.6 kmh 29.86 in1011.2 mb - 0.00 in0.0 mm 0.00 in0.0 mm
04:25 AM 23.5°F-4.7°C 18.3°F-7.6°C 80% 2.3 mph WSW3.7 kmh WSW 3.5 mph5.6 kmh 29.86 in1011.2 mb - 0.00 in0.0 mm 0.00 in0.0 mm
04:30 AM 23.7°F-4.6°C 18.5°F-7.5°C 80% 2.3 mph SW3.7 kmh SW 3.5 mph5.6 kmh 29.86 in1011.2 mb - 0.00 in0.0 mm 0.00 in0.0 mm
04:35 AM 23.7°F-4.6°C 18.5°F-7.5°C 80% 2.3 mph SW3.7 kmh SW 3.5 mph5.6 kmh 29.86 in1011.2 mb - 0.00 in0.0 mm 0.00 in0.0 mm
04:40 AM 23.9°F-4.5°C 18.6°F-7.4°C 80% 2.3 mph WSW3.7 kmh WSW 3.5 mph5.6 kmh 29.86 in1011.2 mb - 0.00 in0.0 mm 0.00 in0.0 mm
04:45 AM 23.9°F-4.5°C 18.6°F-7.4°C 80% 2.3 mph SSW3.7 kmh SSW 3.5 mph5.6 kmh 29.85 in1010.8 mb - 0.00 in0.0 mm 0.00 in0.0 mm
04:50 AM 24.1°F-4.4°C 18.8°F-7.3°C 80% 3.5 mph SSW5.6 kmh SSW 3.5 mph5.6 kmh 29.85 in1010.8 mb - 0.00 in0.0 mm 0.00 in0.0 mm
04:55 AM 24.1°F-4.4°C 18.8°F-7.3°C 80% 2.3 mph SSW3.7 kmh SSW 2.3 mph3.7 kmh 29.85 in1010.8 mb - 0.00 in0.0 mm 0.00 in0.0 mm
05:00 AM 24.1°F-4.4°C 18.8°F-7.3°C 80% 3.5 mph WSW5.6 kmh WSW 3.5 mph5.6 kmh 29.85 in1010.8 mb - 0.00 in0.0 mm 0.00 in0.0 mm
05:10 AM 24.3°F-4.3°C 19.0°F-7.2°C 80% 3.5 mph WSW5.6 kmh WSW 3.5 mph5.6 kmh 29.85 in1010.8 mb - 0.00 in0.0 mm 0.00 in0.0 mm
05:15 AM 24.4°F-4.2°C 19.4°F-7.0°C 81% 3.5 mph SW5.6 kmh SW 4.6 mph7.4 kmh 29.84 in1010.5 mb - 0.00 in0.0 mm 0.00 in0.0 mm
05:20 AM 24.4°F-4.2°C 19.2°F-7.1°C 80% 2.3 mph SW3.7 kmh SW 2.3 mph3.7 kmh 29.84 in1010.5 mb - 0.00 in0.0 mm 0.00 in0.0 mm
05:25 AM 24.6°F-4.1°C 19.3°F-7.1°C 80% 3.5 mph SW5.6 kmh SW 5.8 mph9.3 kmh 29.84 in1010.5 mb - 0.00 in0.0 mm 0.00 in0.0 mm
05:30 AM 24.6°F-4.1°C 19.3°F-7.1°C 80% 4.6 mph SW7.4 kmh SW 4.6 mph7.4 kmh 29.84 in1010.5 mb - 0.00 in0.0 mm 0.00 in0.0 mm
05:35 AM 24.8°F-4.0°C 19.8°F-6.8°C 81% 2.3 mph WSW3.7 kmh WSW 3.5 mph5.6 kmh 29.83 in1010.2 mb - 0.00 in0.0 mm 0.00 in0.0 mm
05:40 AM 24.8°F-4.0°C 19.8°F-6.8°C 81% 3.5 mph SW5.6 kmh SW 3.5 mph5.6 kmh 29.83 in1010.2 mb - 0.00 in0.0 mm 0.00 in0.0 mm
05:45 AM 24.8°F-4.0°C 19.8°F-6.8°C 81% 4.6 mph WSW7.4 kmh WSW 5.8 mph9.3 kmh 29.83 in1010.2 mb - 0.00 in0.0 mm 0.00 in0.0 mm
05:50 AM 24.9°F-3.9°C 19.8°F-6.8°C 81% 3.5 mph WSW5.6 kmh WSW 4.6 mph7.4 kmh 29.83 in1010.2 mb - 0.00 in0.0 mm 0.00 in0.0 mm
05:55 AM 25.0°F-3.9°C 19.7°F-6.8°C 80% 4.6 mph SW7.4 kmh SW 6.9 mph11.1 kmh 29.83 in1010.2 mb - 0.00 in0.0 mm 0.00 in0.0 mm
06:00 AM 25.0°F-3.9°C 19.7°F-6.8°C 80% 3.5 mph WNW5.6 kmh WNW 4.6 mph7.4 kmh 29.82 in1009.8 mb - 0.00 in0.0 mm 0.00 in0.0 mm
06:10 AM 25.2°F-3.8°C 19.9°F-6.7°C 80% 3.5 mph SSW5.6 kmh SSW 3.5 mph5.6 kmh 29.82 in1009.8 mb - 0.00 in0.0 mm 0.00 in0.0 mm
06:15 AM 25.2°F-3.8°C 19.9°F-6.7°C 80% 3.5 mph SW5.6 kmh SW 5.8 mph9.3 kmh 29.82 in1009.8 mb - 0.00 in0.0 mm 0.00 in0.0 mm
06:20 AM 25.3°F-3.7°C 20.0°F-6.7°C 80% 3.5 mph WNW5.6 kmh WNW 4.6 mph7.4 kmh 29.82 in1009.8 mb - 0.00 in0.0 mm 0.00 in0.0 mm
06:25 AM 25.3°F-3.7°C 20.0°F-6.7°C 80% 4.6 mph SW7.4 kmh SW 6.9 mph11.1 kmh 29.82 in1009.8 mb - 0.00 in0.0 mm 0.00 in0.0 mm
06:30 AM 25.3°F-3.7°C 20.0°F-6.7°C 80% 2.3 mph WNW3.7 kmh WNW 3.5 mph5.6 kmh 29.82 in1009.8 mb - 0.00 in0.0 mm 0.00 in0.0 mm
06:35 AM 25.3°F-3.7°C 20.3°F-6.5°C 81% 3.5 mph SW5.6 kmh SW 8.1 mph13.0 kmh 29.82 in1009.8 mb - 0.00 in0.0 mm 0.00 in0.0 mm
06:40 AM 25.3°F-3.7°C 20.3°F-6.5°C 81% 3.5 mph SW5.6 kmh SW 8.1 mph13.0 kmh 29.82 in1009.8 mb - 0.00 in0.0 mm 0.00 in0.0 mm
06:45 AM 25.3°F-3.7°C 20.3°F-6.5°C 81% 4.6 mph SSW7.4 kmh SSW 6.9 mph11.1 kmh 29.82 in1009.8 mb - 0.00 in0.0 mm 0.00 in0.0 mm
06:50 AM 25.5°F-3.6°C 20.5°F-6.4°C 81% 3.5 mph WSW5.6 kmh WSW 5.8 mph9.3 kmh 29.81 in1009.5 mb - 0.00 in0.0 mm 0.00 in0.0 mm
06:55 AM 25.5°F-3.6°C 20.5°F-6.4°C 81% 4.6 mph SW7.4 kmh SW 3.5 mph5.6 kmh 29.81 in1009.5 mb - 0.00 in0.0 mm 0.00 in0.0 mm
07:00 AM 25.5°F-3.6°C 20.5°F-6.4°C 81% 5.8 mph SSW9.3 kmh SSW 6.9 mph11.1 kmh 29.81 in1009.5 mb - 0.00 in0.0 mm 0.00 in0.0 mm
07:10 AM 25.5°F-3.6°C 20.5°F-6.4°C 81% 5.8 mph SW9.3 kmh SW 8.1 mph13.0 kmh 29.81 in1009.5 mb - 0.00 in0.0 mm 0.00 in0.0 mm
07:15 AM 25.7°F-3.5°C 20.7°F-6.3°C 81% 5.8 mph SSW9.3 kmh SSW 6.9 mph11.1 kmh 29.81 in1009.5 mb - 0.00 in0.0 mm 0.00 in0.0 mm
07:20 AM 25.7°F-3.5°C 21.0°F-6.1°C 82% 4.6 mph SW7.4 kmh SW 4.6 mph7.4 kmh 29.81 in1009.5 mb - 0.00 in0.0 mm 0.00 in0.0 mm
07:25 AM 25.7°F-3.5°C 21.0°F-6.1°C 82% 4.6 mph SW7.4 kmh SW 4.6 mph7.4 kmh 29.81 in1009.5 mb - 0.00 in0.0 mm 0.00 in0.0 mm
07:30 AM 25.7°F-3.5°C 21.0°F-6.1°C 82% 5.8 mph SSW9.3 kmh SSW 5.8 mph9.3 kmh 29.81 in1009.5 mb - 0.00 in0.0 mm 0.00 in0.0 mm
07:35 AM 25.7°F-3.5°C 21.3°F-5.9°C 83% 4.6 mph SSW7.4 kmh SSW 10.4 mph16.7 kmh 29.81 in1009.5 mb - 0.00 in0.0 mm 0.00 in0.0 mm
07:40 AM 25.7°F-3.5°C 21.3°F-5.9°C 83% 5.8 mph SSW9.3 kmh SSW 6.9 mph11.1 kmh 29.81 in1009.5 mb - 0.00 in0.0 mm 0.00 in0.0 mm
07:45 AM 25.7°F-3.5°C 21.3°F-5.9°C 83% 4.6 mph WSW7.4 kmh WSW 5.8 mph9.3 kmh 29.81 in1009.5 mb - 0.00 in0.0 mm 0.00 in0.0 mm
07:50 AM 25.7°F-3.5°C 21.3°F-5.9°C 83% 4.6 mph SSW7.4 kmh SSW 8.1 mph13.0 kmh 29.80 in1009.1 mb - 0.00 in0.0 mm 0.00 in0.0 mm
07:55 AM 25.7°F-3.5°C 21.3°F-5.9°C 83% 5.8 mph SW9.3 kmh SW 8.1 mph13.0 kmh 29.80 in1009.1 mb - 0.00 in0.0 mm 0.00 in0.0 mm
08:00 AM 25.9°F-3.4°C 21.7°F-5.7°C 84% 4.6 mph SW7.4 kmh SW 5.8 mph9.3 kmh 29.80 in1009.1 mb - 0.00 in0.0 mm 0.00 in0.0 mm
08:10 AM 26.1°F-3.3°C 21.9°F-5.6°C 84% 4.6 mph WSW7.4 kmh WSW 5.8 mph9.3 kmh 29.80 in1009.1 mb - 0.00 in0.0 mm 0.00 in0.0 mm
08:15 AM 26.1°F-3.3°C 21.9°F-5.6°C 84% 4.6 mph SW7.4 kmh SW 4.6 mph7.4 kmh 29.80 in1009.1 mb - 0.00 in0.0 mm 0.00 in0.0 mm
08:20 AM 26.2°F-3.2°C 22.1°F-5.5°C 84% 4.6 mph SSW7.4 kmh SSW 5.8 mph9.3 kmh 29.79 in1008.8 mb - 0.00 in0.0 mm 0.00 in0.0 mm
08:25 AM 26.2°F-3.2°C 22.1°F-5.5°C 84% 4.6 mph WSW7.4 kmh WSW 5.8 mph9.3 kmh 29.79 in1008.8 mb - 0.00 in0.0 mm 0.00 in0.0 mm
08:30 AM 26.2°F-3.2°C 22.1°F-5.5°C 84% 4.6 mph SW7.4 kmh SW 5.8 mph9.3 kmh 29.79 in1008.8 mb - 0.00 in0.0 mm 0.00 in0.0 mm
08:35 AM 26.4°F-3.1°C 22.2°F-5.4°C 84% 4.6 mph WSW7.4 kmh WSW 5.8 mph9.3 kmh 29.79 in1008.8 mb - 0.00 in0.0 mm 0.00 in0.0 mm
08:40 AM 26.4°F-3.1°C 22.0°F-5.6°C 83% 4.6 mph WSW7.4 kmh WSW 5.8 mph9.3 kmh 29.79 in1008.8 mb - 0.00 in0.0 mm 0.00 in0.0 mm
08:45 AM 26.4°F-3.1°C 22.0°F-5.6°C 83% 3.5 mph SW5.6 kmh SW 3.5 mph5.6 kmh 29.79 in1008.8 mb - 0.00 in0.0 mm 0.00 in0.0 mm
08:50 AM 26.4°F-3.1°C 22.0°F-5.6°C 83% 6.9 mph SSW11.1 kmh SSW 6.9 mph11.1 kmh 29.78 in1008.5 mb - 0.00 in0.0 mm 0.00 in0.0 mm
08:55 AM 26.6°F-3.0°C 22.1°F-5.5°C 83% 5.8 mph SW9.3 kmh SW 6.9 mph11.1 kmh 29.78 in1008.5 mb - 0.00 in0.0 mm 0.00 in0.0 mm
09:00 AM 26.6°F-3.0°C 22.1°F-5.5°C 83% 5.8 mph WSW9.3 kmh WSW 5.8 mph9.3 kmh 29.78 in1008.5 mb - 0.00 in0.0 mm 0.00 in0.0 mm
09:10 AM 26.8°F-2.9°C 22.3°F-5.4°C 83% 5.8 mph WSW9.3 kmh WSW 6.9 mph11.1 kmh 29.77 in1008.1 mb - 0.00 in0.0 mm 0.00 in0.0 mm
09:15 AM 26.8°F-2.9°C 22.3°F-5.4°C 83% 3.5 mph WSW5.6 kmh WSW 4.6 mph7.4 kmh 29.77 in1008.1 mb - 0.00 in0.0 mm 0.00 in0.0 mm
09:20 AM 26.8°F-2.9°C 22.3°F-5.4°C 83% 4.6 mph WSW7.4 kmh WSW 8.1 mph13.0 kmh 29.77 in1008.1 mb - 0.00 in0.0 mm 0.00 in0.0 mm
09:25 AM 27.0°F-2.8°C 22.5°F-5.3°C 83% 5.8 mph SW9.3 kmh SW 8.1 mph13.0 kmh 29.77 in1008.1 mb - 0.00 in0.0 mm 0.00 in0.0 mm
09:30 AM 27.0°F-2.8°C 22.8°F-5.1°C 84% 3.5 mph SW5.6 kmh SW 3.5 mph5.6 kmh 29.77 in1008.1 mb - 0.00 in0.0 mm 0.00 in0.0 mm
09:35 AM 27.1°F-2.7°C 22.9°F-5.1°C 84% 4.6 mph WSW7.4 kmh WSW 6.9 mph11.1 kmh 29.77 in1008.1 mb - 0.00 in0.0 mm 0.00 in0.0 mm
09:40 AM 27.1°F-2.7°C 22.9°F-5.1°C 84% 4.6 mph SW7.4 kmh SW 4.6 mph7.4 kmh 29.77 in1008.1 mb - 0.00 in0.0 mm 0.00 in0.0 mm
09:45 AM 27.1°F-2.7°C 22.9°F-5.1°C 84% 4.6 mph SSW7.4 kmh SSW 5.8 mph9.3 kmh 29.77 in1008.1 mb - 0.00 in0.0 mm 0.00 in0.0 mm
09:50 AM 27.1°F-2.7°C 22.7°F-5.2°C 83% 5.8 mph SSW9.3 kmh SSW 9.2 mph14.8 kmh 29.77 in1008.1 mb - 0.00 in0.0 mm 0.00 in0.0 mm
09:55 AM 27.1°F-2.7°C 22.7°F-5.2°C 83% 5.8 mph SW9.3 kmh SW 6.9 mph11.1 kmh 29.77 in1008.1 mb - 0.00 in0.0 mm 0.00 in0.0 mm
10:00 AM 27.1°F-2.7°C 22.7°F-5.2°C 83% 4.6 mph SW7.4 kmh SW 6.9 mph11.1 kmh 29.77 in1008.1 mb - 0.00 in0.0 mm 0.00 in0.0 mm
10:10 AM 27.1°F-2.7°C 22.9°F-5.1°C 84% 5.8 mph SW9.3 kmh SW 8.1 mph13.0 kmh 29.76 in1007.8 mb - 0.02 in0.5 mm 0.02 in0.5 mm
10:15 AM 27.1°F-2.7°C 22.9°F-5.1°C 84% 8.1 mph SSW13.0 kmh SSW 8.1 mph13.0 kmh 29.76 in1007.8 mb - 0.02 in0.5 mm 0.02 in0.5 mm
10:20 AM 27.1°F-2.7°C 22.9°F-5.1°C 84% 6.9 mph SW11.1 kmh SW 8.1 mph13.0 kmh 29.75 in1007.5 mb - 0.02 in0.5 mm 0.02 in0.5 mm
10:25 AM 27.3°F-2.6°C 23.1°F-4.9°C 84% 4.6 mph SW7.4 kmh SW 5.8 mph9.3 kmh 29.75 in1007.5 mb - 0.02 in0.5 mm 0.02 in0.5 mm
10:30 AM 27.3°F-2.6°C 23.1°F-4.9°C 84% 5.8 mph SW9.3 kmh SW 5.8 mph9.3 kmh 29.75 in1007.5 mb - 0.02 in0.5 mm 0.02 in0.5 mm
10:35 AM 27.3°F-2.6°C 23.1°F-4.9°C 84% 4.6 mph SW7.4 kmh SW 6.9 mph11.1 kmh 29.75 in1007.5 mb - 0.02 in0.5 mm 0.02 in0.5 mm
10:40 AM 27.3°F-2.6°C 23.1°F-4.9°C 84% 4.6 mph WSW7.4 kmh WSW 6.9 mph11.1 kmh 29.75 in1007.5 mb - 0.02 in0.5 mm 0.02 in0.5 mm
10:45 AM 27.3°F-2.6°C 23.1°F-4.9°C 84% 5.8 mph WSW9.3 kmh WSW 8.1 mph13.0 kmh 29.74 in1007.1 mb - 0.02 in0.5 mm 0.02 in0.5 mm
10:50 AM 27.3°F-2.6°C 23.1°F-4.9°C 84% 5.8 mph SW9.3 kmh SW 5.8 mph9.3 kmh 29.74 in1007.1 mb - 0.02 in0.5 mm 0.02 in0.5 mm
10:55 AM 27.3°F-2.6°C 23.1°F-4.9°C 84% 4.6 mph SW7.4 kmh SW 5.8 mph9.3 kmh 29.74 in1007.1 mb - 0.02 in0.5 mm 0.02 in0.5 mm
11:00 AM 27.5°F-2.5°C 23.3°F-4.8°C 84% 6.9 mph WSW11.1 kmh WSW 8.1 mph13.0 kmh 29.74 in1007.1 mb - 0.02 in0.5 mm 0.02 in0.5 mm
11:10 AM 27.6°F-2.4°C 23.4°F-4.8°C 84% 5.8 mph SSW9.3 kmh SSW 5.8 mph9.3 kmh 29.73 in1006.8 mb - 0.01 in0.3 mm 0.03 in0.8 mm
11:15 AM 27.9°F-2.3°C 23.7°F-4.6°C 84% 5.8 mph SW9.3 kmh SW 8.1 mph13.0 kmh 29.73 in1006.8 mb - 0.01 in0.3 mm 0.03 in0.8 mm
11:20 AM 27.9°F-2.3°C 23.7°F-4.6°C 84% 5.8 mph WSW9.3 kmh WSW 6.9 mph11.1 kmh 29.72 in1006.4 mb - 0.01 in0.3 mm 0.03 in0.8 mm
11:25 AM 27.9°F-2.3°C 23.7°F-4.6°C 84% 4.6 mph WNW7.4 kmh WNW 6.9 mph11.1 kmh 29.72 in1006.4 mb - 0.01 in0.3 mm 0.03 in0.8 mm
11:30 AM 28.0°F-2.2°C 23.8°F-4.6°C 84% 4.6 mph W7.4 kmh W 10.4 mph16.7 kmh 29.72 in1006.4 mb - 0.01 in0.3 mm 0.03 in0.8 mm
11:35 AM 28.0°F-2.2°C 23.8°F-4.6°C 84% 5.8 mph SW9.3 kmh SW 6.9 mph11.1 kmh 29.71 in1006.1 mb - 0.01 in0.3 mm 0.03 in0.8 mm
11:40 AM 28.0°F-2.2°C 23.8°F-4.6°C 84% 4.6 mph SSW7.4 kmh SSW 8.1 mph13.0 kmh 29.71 in1006.1 mb - 0.01 in0.3 mm 0.03 in0.8 mm
11:45 AM 28.3°F-2.1°C 24.0°F-4.4°C 84% 5.8 mph SW9.3 kmh SW 6.9 mph11.1 kmh 29.70 in1005.8 mb - 0.03 in0.8 mm 0.05 in1.3 mm
11:50 AM 28.4°F-2.0°C 23.9°F-4.5°C 83% 5.8 mph WSW9.3 kmh WSW 10.4 mph16.7 kmh 29.69 in1005.4 mb - 0.03 in0.8 mm 0.05 in1.3 mm
11:55 AM 28.4°F-2.0°C 23.9°F-4.5°C 83% 5.8 mph SW9.3 kmh SW 8.1 mph13.0 kmh 29.69 in1005.4 mb - 0.03 in0.8 mm 0.05 in1.3 mm
12:00 PM 28.4°F-2.0°C 23.9°F-4.5°C 83% 5.8 mph SW9.3 kmh SW 8.1 mph13.0 kmh 29.69 in1005.4 mb - 0.03 in0.8 mm 0.05 in1.3 mm
12:10 PM 28.4°F-2.0°C 23.9°F-4.5°C 83% 4.6 mph WSW7.4 kmh WSW 8.1 mph13.0 kmh 29.69 in1005.4 mb - 0.03 in0.8 mm 0.06 in1.5 mm
12:15 PM 28.6°F-1.9°C 24.1°F-4.4°C 83% 4.6 mph SSW7.4 kmh SSW 3.5 mph5.6 kmh 29.69 in1005.4 mb - 0.03 in0.8 mm 0.06 in1.5 mm
12:20 PM 28.8°F-1.8°C 24.2°F-4.3°C 83% 4.6 mph WSW7.4 kmh WSW 5.8 mph9.3 kmh 29.68 in1005.1 mb - 0.03 in0.8 mm 0.06 in1.5 mm
12:25 PM 28.6°F-1.9°C 24.1°F-4.4°C 83% 5.8 mph SW9.3 kmh SW 10.4 mph16.7 kmh 29.68 in1005.1 mb - 0.03 in0.8 mm 0.06 in1.5 mm
12:30 PM 28.8°F-1.8°C 24.5°F-4.2°C 84% 4.6 mph W7.4 kmh W 4.6 mph7.4 kmh 29.68 in1005.1 mb - 0.05 in1.3 mm 0.08 in2.0 mm
12:35 PM 29.1°F-1.6°C 24.8°F-4.0°C 84% 4.6 mph SSW7.4 kmh SSW 5.8 mph9.3 kmh 29.68 in1005.1 mb - 0.05 in1.3 mm 0.08 in2.0 mm
12:40 PM 29.3°F-1.5°C 25.1°F-3.8°C 84% 4.6 mph SW7.4 kmh SW 4.6 mph7.4 kmh 29.68 in1005.1 mb - 0.07 in1.8 mm 0.10 in2.5 mm
12:45 PM 29.5°F-1.4°C 25.2°F-3.8°C 84% 5.8 mph SW9.3 kmh SW 6.9 mph11.1 kmh 29.68 in1005.1 mb - 0.07 in1.8 mm 0.10 in2.5 mm
12:50 PM 29.3°F-1.5°C 24.8°F-4.0°C 83% 6.9 mph WSW11.1 kmh WSW 8.1 mph13.0 kmh 29.68 in1005.1 mb - 0.04 in1.0 mm 0.10 in2.5 mm
12:55 PM 29.1°F-1.6°C 24.6°F-4.1°C 83% 4.6 mph WSW7.4 kmh WSW 4.6 mph7.4 kmh 29.68 in1005.1 mb - 0.06 in1.5 mm 0.12 in3.0 mm
01:00 PM 29.3°F-1.5°C 24.8°F-4.0°C 83% 6.9 mph S11.1 kmh S 6.9 mph11.1 kmh 29.67 in1004.7 mb - 0.06 in1.5 mm 0.12 in3.0 mm
01:10 PM 29.3°F-1.5°C 24.8°F-4.0°C 83% 4.6 mph SSW7.4 kmh SSW 5.8 mph9.3 kmh 29.66 in1004.4 mb - 0.05 in1.3 mm 0.12 in3.0 mm
01:15 PM 29.1°F-1.6°C 24.6°F-4.1°C 83% 5.8 mph WSW9.3 kmh WSW 8.1 mph13.0 kmh 29.66 in1004.4 mb - 0.05 in1.3 mm 0.12 in3.0 mm
01:20 PM 29.3°F-1.5°C 24.8°F-4.0°C 83% 5.8 mph W9.3 kmh W 8.1 mph13.0 kmh 29.65 in1004.1 mb - 0.05 in1.3 mm 0.12 in3.0 mm
01:25 PM 29.3°F-1.5°C 24.8°F-4.0°C 83% 4.6 mph WSW7.4 kmh WSW 3.5 mph5.6 kmh 29.65 in1004.1 mb - 0.05 in1.3 mm 0.12 in3.0 mm
01:30 PM 29.3°F-1.5°C 24.8°F-4.0°C 83% 4.6 mph WSW7.4 kmh WSW 3.5 mph5.6 kmh 29.65 in1004.1 mb - 0.06 in1.5 mm 0.14 in3.6 mm
01:35 PM 29.3°F-1.5°C 24.8°F-4.0°C 83% 5.8 mph WSW9.3 kmh WSW 6.9 mph11.1 kmh 29.64 in1003.7 mb - 0.06 in1.5 mm 0.14 in3.6 mm
01:40 PM 29.1°F-1.6°C 24.6°F-4.1°C 83% 6.9 mph WSW11.1 kmh WSW 6.9 mph11.1 kmh 29.64 in1003.7 mb - 0.04 in1.0 mm 0.14 in3.6 mm
01:45 PM 29.1°F-1.6°C 24.9°F-3.9°C 84% 3.5 mph WSW5.6 kmh WSW 4.6 mph7.4 kmh 29.64 in1003.7 mb - 0.05 in1.3 mm 0.15 in3.8 mm
01:50 PM 29.1°F-1.6°C 24.9°F-3.9°C 84% 5.8 mph WSW9.3 kmh WSW 4.6 mph7.4 kmh 29.64 in1003.7 mb - 0.05 in1.3 mm 0.15 in3.8 mm
01:55 PM 29.1°F-1.6°C 24.9°F-3.9°C 84% 5.8 mph WSW9.3 kmh WSW 10.4 mph16.7 kmh 29.64 in1003.7 mb - 0.03 in0.8 mm 0.15 in3.8 mm
02:00 PM 29.1°F-1.6°C 24.9°F-3.9°C 84% 5.8 mph SSW9.3 kmh SSW 5.8 mph9.3 kmh 29.64 in1003.7 mb - 0.03 in0.8 mm 0.15 in3.8 mm
02:10 PM 29.1°F-1.6°C 24.9°F-3.9°C 84% 5.8 mph SW9.3 kmh SW 8.1 mph13.0 kmh 29.64 in1003.7 mb - 0.05 in1.3 mm 0.17 in4.3 mm
02:15 PM 29.1°F-1.6°C 24.9°F-3.9°C 84% 6.9 mph SSW11.1 kmh SSW 5.8 mph9.3 kmh 29.64 in1003.7 mb - 0.06 in1.5 mm 0.18 in4.6 mm
02:20 PM 29.1°F-1.6°C 24.9°F-3.9°C 84% 5.8 mph SW9.3 kmh SW 8.1 mph13.0 kmh 29.63 in1003.4 mb - 0.06 in1.5 mm 0.18 in4.6 mm
02:25 PM 29.1°F-1.6°C 24.9°F-3.9°C 84% 5.8 mph SW9.3 kmh SW 9.2 mph14.8 kmh 29.63 in1003.4 mb - 0.06 in1.5 mm 0.18 in4.6 mm
02:30 PM 29.1°F-1.6°C 24.9°F-3.9°C 84% 4.6 mph WSW7.4 kmh WSW 5.8 mph9.3 kmh 29.63 in1003.4 mb - 0.04 in1.0 mm 0.18 in4.6 mm
02:35 PM 29.1°F-1.6°C 24.9°F-3.9°C 84% 5.8 mph W9.3 kmh W 6.9 mph11.1 kmh 29.63 in1003.4 mb - 0.06 in1.5 mm 0.20 in5.1 mm
02:40 PM 29.3°F-1.5°C 25.1°F-3.8°C 84% 6.9 mph SW11.1 kmh SW 8.1 mph13.0 kmh 29.63 in1003.4 mb - 0.06 in1.5 mm 0.20 in5.1 mm
02:45 PM 29.3°F-1.5°C 25.1°F-3.8°C 84% 4.6 mph SW7.4 kmh SW 6.9 mph11.1 kmh 29.63 in1003.4 mb - 0.05 in1.3 mm 0.20 in5.1 mm
02:50 PM 29.3°F-1.5°C 25.1°F-3.8°C 84% 3.5 mph SW5.6 kmh SW 4.6 mph7.4 kmh 29.62 in1003.0 mb - 0.06 in1.5 mm 0.21 in5.3 mm
02:55 PM 29.3°F-1.5°C 25.1°F-3.8°C 84% 6.9 mph WSW11.1 kmh WSW 10.4 mph16.7 kmh 29.62 in1003.0 mb - 0.06 in1.5 mm 0.21 in5.3 mm
03:00 PM 29.5°F-1.4°C 25.2°F-3.8°C 84% 4.6 mph SW7.4 kmh SW 8.1 mph13.0 kmh 29.62 in1003.0 mb - 0.06 in1.5 mm 0.21 in5.3 mm
03:10 PM 29.5°F-1.4°C 25.8°F-3.4°C 86% 4.6 mph W7.4 kmh W 4.6 mph7.4 kmh 29.62 in1003.0 mb - 0.04 in1.0 mm 0.21 in5.3 mm
03:15 PM 29.5°F-1.4°C 25.8°F-3.4°C 86% 5.8 mph SW9.3 kmh SW 8.1 mph13.0 kmh 29.62 in1003.0 mb - 0.03 in0.8 mm 0.21 in5.3 mm
03:20 PM 29.5°F-1.4°C 25.8°F-3.4°C 86% 4.6 mph SSW7.4 kmh SSW 5.8 mph9.3 kmh 29.62 in1003.0 mb - 0.03 in0.8 mm 0.21 in5.3 mm
03:25 PM 29.5°F-1.4°C 25.8°F-3.4°C 86% 5.8 mph WSW9.3 kmh WSW 8.1 mph13.0 kmh 29.62 in1003.0 mb - 0.05 in1.3 mm 0.23 in5.8 mm
03:30 PM 29.5°F-1.4°C 25.8°F-3.4°C 86% 4.6 mph SW7.4 kmh SW 4.6 mph7.4 kmh 29.61 in1002.7 mb - 0.05 in1.3 mm 0.23 in5.8 mm
03:35 PM 29.5°F-1.4°C 25.8°F-3.4°C 86% 4.6 mph W7.4 kmh W 6.9 mph11.1 kmh 29.61 in1002.7 mb - 0.03 in0.8 mm 0.23 in5.8 mm
03:40 PM 29.5°F-1.4°C 25.8°F-3.4°C 86% 4.6 mph SW7.4 kmh SW 4.6 mph7.4 kmh 29.61 in1002.7 mb - 0.03 in0.8 mm 0.23 in5.8 mm
03:45 PM 29.5°F-1.4°C 25.8°F-3.4°C 86% 5.8 mph SW9.3 kmh SW 6.9 mph11.1 kmh 29.61 in1002.7 mb - 0.04 in1.0 mm 0.24 in6.1 mm
03:50 PM 29.5°F-1.4°C 25.8°F-3.4°C 86% 4.6 mph SW7.4 kmh SW 6.9 mph11.1 kmh 29.61 in1002.7 mb - 0.03 in0.8 mm 0.24 in6.1 mm
03:55 PM 29.7°F-1.3°C 26.0°F-3.3°C 86% 5.8 mph WSW9.3 kmh WSW 5.8 mph9.3 kmh 29.61 in1002.7 mb - 0.03 in0.8 mm 0.24 in6.1 mm
04:00 PM 29.7°F-1.3°C 26.0°F-3.3°C 86% 5.8 mph SW9.3 kmh SW 5.8 mph9.3 kmh 29.61 in1002.7 mb - 0.03 in0.8 mm 0.24 in6.1 mm
04:10 PM 29.7°F-1.3°C 26.0°F-3.3°C 86% 5.8 mph WSW9.3 kmh WSW 3.5 mph5.6 kmh 29.61 in1002.7 mb - 0.05 in1.3 mm 0.26 in6.6 mm
04:15 PM 29.8°F-1.2°C 26.2°F-3.2°C 86% 4.6 mph WSW7.4 kmh WSW 3.5 mph5.6 kmh 29.61 in1002.7 mb - 0.05 in1.3 mm 0.26 in6.6 mm
04:20 PM 29.8°F-1.2°C 26.4°F-3.1°C 87% 4.6 mph WSW7.4 kmh WSW 5.8 mph9.3 kmh 29.60 in1002.4 mb - 0.05 in1.3 mm 0.26 in6.6 mm
04:25 PM 30.0°F-1.1°C 26.6°F-3.0°C 87% 5.8 mph SW9.3 kmh SW 8.1 mph13.0 kmh 29.60 in1002.4 mb - 0.03 in0.8 mm 0.26 in6.6 mm
04:30 PM 30.0°F-1.1°C 26.6°F-3.0°C 87% 4.6 mph WSW7.4 kmh WSW 6.9 mph11.1 kmh 29.60 in1002.4 mb - 0.04 in1.0 mm 0.27 in6.9 mm
04:35 PM 30.0°F-1.1°C 26.6°F-3.0°C 87% 5.8 mph W9.3 kmh W 5.8 mph9.3 kmh 29.59 in1002.0 mb - 0.04 in1.0 mm 0.27 in6.9 mm
04:40 PM 30.2°F-1.0°C 26.8°F-2.9°C 87% 5.8 mph SW9.3 kmh SW 5.8 mph9.3 kmh 29.59 in1002.0 mb - 0.04 in1.0 mm 0.27 in6.9 mm
04:45 PM 30.2°F-1.0°C 26.8°F-2.9°C 87% 4.6 mph WSW7.4 kmh WSW 5.8 mph9.3 kmh 29.59 in1002.0 mb - 0.04 in1.0 mm 0.27 in6.9 mm
04:50 PM 30.4°F-0.9°C 26.7°F-2.9°C 86% 3.5 mph SW5.6 kmh SW 4.6 mph7.4 kmh 29.59 in1002.0 mb - 0.03 in0.8 mm 0.27 in6.9 mm
04:55 PM 30.4°F-0.9°C 27.0°F-2.8°C 87% 3.5 mph WSW5.6 kmh WSW 3.5 mph5.6 kmh 29.59 in1002.0 mb - 0.05 in1.3 mm 0.29 in7.4 mm
05:00 PM 30.5°F-0.8°C 27.1°F-2.7°C 87% 4.6 mph WSW7.4 kmh WSW 3.5 mph5.6 kmh 29.59 in1002.0 mb - 0.05 in1.3 mm 0.29 in7.4 mm
05:10 PM 30.6°F-0.8°C 27.2°F-2.7°C 87% 3.5 mph NW5.6 kmh NW 4.6 mph7.4 kmh 29.59 in1002.0 mb - 0.03 in0.8 mm 0.29 in7.4 mm
05:15 PM 30.7°F-0.7°C 27.3°F-2.6°C 87% 3.5 mph W5.6 kmh W 3.5 mph5.6 kmh 29.59 in1002.0 mb - 0.04 in1.0 mm 0.30 in7.6 mm
05:20 PM 30.7°F-0.7°C 27.3°F-2.6°C 87% 4.6 mph SW7.4 kmh SW 4.6 mph7.4 kmh 29.58 in1001.7 mb - 0.04 in1.0 mm 0.30 in7.6 mm
05:25 PM 30.7°F-0.7°C 27.3°F-2.6°C 87% 2.3 mph WSW3.7 kmh WSW 3.5 mph5.6 kmh 29.58 in1001.7 mb - 0.04 in1.0 mm 0.30 in7.6 mm
05:30 PM 30.7°F-0.7°C 27.6°F-2.4°C 88% 3.5 mph WNW5.6 kmh WNW 3.5 mph5.6 kmh 29.58 in1001.7 mb - 0.06 in1.5 mm 0.32 in8.1 mm
05:35 PM 30.7°F-0.7°C 27.6°F-2.4°C 88% 3.5 mph WNW5.6 kmh WNW 3.5 mph5.6 kmh 29.58 in1001.7 mb - 0.05 in1.3 mm 0.32 in8.1 mm
05:40 PM 30.7°F-0.7°C 27.6°F-2.4°C 88% 2.3 mph WNW3.7 kmh WNW 3.5 mph5.6 kmh 29.58 in1001.7 mb - 0.05 in1.3 mm 0.32 in8.1 mm
05:45 PM 30.9°F-0.6°C 27.8°F-2.3°C 88% 3.5 mph WNW5.6 kmh WNW 3.5 mph5.6 kmh 29.58 in1001.7 mb - 0.05 in1.3 mm 0.32 in8.1 mm
05:50 PM 30.9°F-0.6°C 27.8°F-2.3°C 88% 3.5 mph W5.6 kmh W 4.6 mph7.4 kmh 29.58 in1001.7 mb - 0.06 in1.5 mm 0.34 in8.6 mm
05:55 PM 30.9°F-0.6°C 27.8°F-2.3°C 88% 2.3 mph WNW3.7 kmh WNW 3.5 mph5.6 kmh 29.58 in1001.7 mb - 0.06 in1.5 mm 0.34 in8.6 mm
06:00 PM 30.9°F-0.6°C 27.8°F-2.3°C 88% 3.5 mph WSW5.6 kmh WSW 3.5 mph5.6 kmh 29.58 in1001.7 mb - 0.04 in1.0 mm 0.34 in8.6 mm
06:10 PM 30.9°F-0.6°C 27.8°F-2.3°C 88% 3.5 mph SSW5.6 kmh SSW 5.8 mph9.3 kmh 29.58 in1001.7 mb - 0.04 in1.0 mm 0.34 in8.6 mm
06:15 PM 30.9°F-0.6°C 27.8°F-2.3°C 88% 2.3 mph NW3.7 kmh NW 3.5 mph5.6 kmh 29.58 in1001.7 mb - 0.03 in0.8 mm 0.34 in8.6 mm
06:20 PM 30.9°F-0.6°C 27.8°F-2.3°C 88% 2.3 mph WNW3.7 kmh WNW 3.5 mph5.6 kmh 29.57 in1001.4 mb - 0.05 in1.3 mm 0.36 in9.1 mm
06:25 PM 31.1°F-0.5°C 28.0°F-2.2°C 88% 3.5 mph WNW5.6 kmh WNW 3.5 mph5.6 kmh 29.57 in1001.4 mb - 0.05 in1.3 mm 0.36 in9.1 mm
06:30 PM 31.1°F-0.5°C 28.0°F-2.2°C 88% 3.5 mph NW5.6 kmh NW 3.5 mph5.6 kmh 29.57 in1001.4 mb - 0.03 in0.8 mm 0.36 in9.1 mm
06:35 PM 31.1°F-0.5°C 28.0°F-2.2°C 88% 3.5 mph NW5.6 kmh NW 3.5 mph5.6 kmh 29.57 in1001.4 mb - 0.03 in0.8 mm 0.36 in9.1 mm
06:40 PM 31.1°F-0.5°C 28.0°F-2.2°C 88% 3.5 mph WSW5.6 kmh WSW 3.5 mph5.6 kmh 29.57 in1001.4 mb - 0.03 in0.8 mm 0.36 in9.1 mm
06:45 PM 31.3°F-0.4°C 28.4°F-2.0°C 89% 3.5 mph WNW5.6 kmh WNW 3.5 mph5.6 kmh 29.57 in1001.4 mb - 0.03 in0.8 mm 0.36 in9.1 mm
06:50 PM 31.3°F-0.4°C 28.4°F-2.0°C 89% 2.3 mph WNW3.7 kmh WNW 2.3 mph3.7 kmh 29.58 in1001.7 mb - 0.03 in0.8 mm 0.36 in9.1 mm
06:55 PM 31.4°F-0.3°C 28.6°F-1.9°C 89% 3.5 mph W5.6 kmh W 3.5 mph5.6 kmh 29.58 in1001.7 mb - 0.02 in0.5 mm 0.36 in9.1 mm
07:00 PM 31.5°F-0.3°C 28.6°F-1.9°C 89% 4.6 mph WNW7.4 kmh WNW 4.6 mph7.4 kmh 29.58 in1001.7 mb - 0.02 in0.5 mm 0.36 in9.1 mm
07:10 PM 31.6°F-0.2°C 28.8°F-1.8°C 89% 4.6 mph WNW7.4 kmh WNW 3.5 mph5.6 kmh 29.58 in1001.7 mb - 0.02 in0.5 mm 0.36 in9.1 mm
07:15 PM 31.6°F-0.2°C 28.8°F-1.8°C 89% 3.5 mph WSW5.6 kmh WSW 4.6 mph7.4 kmh 29.58 in1001.7 mb - 0.02 in0.5 mm 0.36 in9.1 mm
07:20 PM 31.6°F-0.2°C 28.8°F-1.8°C 89% 3.5 mph WNW5.6 kmh WNW 3.5 mph5.6 kmh 29.58 in1001.7 mb - 0.00 in0.0 mm 0.36 in9.1 mm
07:25 PM 31.6°F-0.2°C 28.8°F-1.8°C 89% 3.5 mph WNW5.6 kmh WNW 5.8 mph9.3 kmh 29.58 in1001.7 mb - 0.00 in0.0 mm 0.36 in9.1 mm
07:30 PM 31.8°F-0.1°C 28.9°F-1.7°C 89% 3.5 mph WNW5.6 kmh WNW 3.5 mph5.6 kmh 29.58 in1001.7 mb - 0.00 in0.0 mm 0.36 in9.1 mm
07:35 PM 31.8°F-0.1°C 28.9°F-1.7°C 89% 3.5 mph WNW5.6 kmh WNW 3.5 mph5.6 kmh 29.57 in1001.4 mb - 0.00 in0.0 mm 0.36 in9.1 mm
07:40 PM 31.8°F-0.1°C 28.9°F-1.7°C 89% 4.6 mph WNW7.4 kmh WNW 3.5 mph5.6 kmh 29.57 in1001.4 mb - 0.00 in0.0 mm 0.36 in9.1 mm
07:45 PM 31.8°F-0.1°C 29.2°F-1.6°C 90% 3.5 mph NW5.6 kmh NW 3.5 mph5.6 kmh 29.57 in1001.4 mb - 0.00 in0.0 mm 0.36 in9.1 mm
07:50 PM 32.0°F0.0°C 29.4°F-1.4°C 90% 3.5 mph NW5.6 kmh NW 5.8 mph9.3 kmh 29.57 in1001.4 mb - 0.00 in0.0 mm 0.36 in9.1 mm
07:55 PM 32.0°F0.0°C 29.4°F-1.4°C 90% 3.5 mph NW5.6 kmh NW 5.8 mph9.3 kmh 29.57 in1001.4 mb - 0.00 in0.0 mm 0.36 in9.1 mm
08:00 PM 32.0°F0.0°C 29.4°F-1.4°C 90% 4.6 mph WNW7.4 kmh WNW 5.8 mph9.3 kmh 29.57 in1001.4 mb - 0.00 in0.0 mm 0.36 in9.1 mm
08:10 PM 32.0°F0.0°C 29.4°F-1.4°C 90% 3.5 mph WNW5.6 kmh WNW 3.5 mph5.6 kmh 29.57 in1001.4 mb - 0.00 in0.0 mm 0.36 in9.1 mm
08:15 PM 32.0°F0.0°C 29.4°F-1.4°C 90% 3.5 mph WNW5.6 kmh WNW 3.5 mph5.6 kmh 29.57 in1001.4 mb - 0.00 in0.0 mm 0.36 in9.1 mm
08:20 PM 32.0°F0.0°C 29.7°F-1.3°C 91% 3.5 mph WNW5.6 kmh WNW 5.8 mph9.3 kmh 29.57 in1001.4 mb - 0.00 in0.0 mm 0.36 in9.1 mm
08:25 PM 32.0°F0.0°C 29.7°F-1.3°C 91% 3.5 mph W5.6 kmh W 4.6 mph7.4 kmh 29.57 in1001.4 mb - 0.00 in0.0 mm 0.36 in9.1 mm
08:30 PM 32.1°F0.1°C 29.8°F-1.2°C 91% 3.5 mph WNW5.6 kmh WNW 3.5 mph5.6 kmh 29.57 in1001.4 mb - 0.00 in0.0 mm 0.36 in9.1 mm
08:35 PM 32.2°F0.1°C 29.8°F-1.2°C 91% 3.5 mph NW5.6 kmh NW 4.6 mph7.4 kmh 29.57 in1001.4 mb - 0.00 in0.0 mm 0.36 in9.1 mm
08:40 PM 32.2°F0.1°C 29.8°F-1.2°C 91% 4.6 mph WNW7.4 kmh WNW 5.8 mph9.3 kmh 29.57 in1001.4 mb - 0.00 in0.0 mm 0.36 in9.1 mm
08:45 PM 32.4°F0.2°C 30.3°F-0.9°C 92% 4.6 mph WNW7.4 kmh WNW 5.8 mph9.3 kmh 29.57 in1001.4 mb - 0.00 in0.0 mm 0.36 in9.1 mm
08:50 PM 32.4°F0.2°C 30.3°F-0.9°C 92% 4.6 mph NW7.4 kmh NW 5.8 mph9.3 kmh 29.57 in1001.4 mb - 0.00 in0.0 mm 0.36 in9.1 mm
08:55 PM 32.4°F0.2°C 30.3°F-0.9°C 92% 3.5 mph NW5.6 kmh NW 3.5 mph5.6 kmh 29.57 in1001.4 mb - 0.00 in0.0 mm 0.36 in9.1 mm
09:00 PM 32.4°F0.2°C 30.3°F-0.9°C 92% 4.6 mph WNW7.4 kmh WNW 4.6 mph7.4 kmh 29.57 in1001.4 mb - 0.00 in0.0 mm 0.36 in9.1 mm
09:10 PM 32.5°F0.3°C 30.5°F-0.8°C 92% 3.5 mph NW5.6 kmh NW 3.5 mph5.6 kmh 29.57 in1001.4 mb - 0.00 in0.0 mm 0.36 in9.1 mm
09:15 PM 32.5°F0.3°C 31.0°F-0.6°C 94% 3.5 mph NNW5.6 kmh NNW 3.5 mph5.6 kmh 29.57 in1001.4 mb - 0.00 in0.0 mm 0.36 in9.1 mm
09:20 PM 32.5°F0.3°C 31.0°F-0.6°C 94% 3.5 mph NW5.6 kmh NW 4.6 mph7.4 kmh 29.57 in1001.4 mb - 0.00 in0.0 mm 0.36 in9.1 mm
09:25 PM 32.5°F0.3°C 31.0°F-0.6°C 94% 3.5 mph NW5.6 kmh NW 5.8 mph9.3 kmh 29.57 in1001.4 mb - 0.00 in0.0 mm 0.36 in9.1 mm
09:30 PM 32.7°F0.4°C 31.2°F-0.4°C 94% 4.6 mph NNW7.4 kmh NNW 3.5 mph5.6 kmh 29.57 in1001.4 mb - 0.00 in0.0 mm 0.36 in9.1 mm
09:35 PM 32.7°F0.4°C 31.2°F-0.4°C 94% 5.8 mph NW9.3 kmh NW 6.9 mph11.1 kmh 29.57 in1001.4 mb - 0.00 in0.0 mm 0.36 in9.1 mm
09:40 PM 32.7°F0.4°C 31.2°F-0.4°C 94% 4.6 mph WNW7.4 kmh WNW 4.6 mph7.4 kmh 29.57 in1001.4 mb - 0.00 in0.0 mm 0.36 in9.1 mm
09:45 PM 32.9°F0.5°C 31.4°F-0.3°C 94% 4.6 mph NNW7.4 kmh NNW 3.5 mph5.6 kmh 29.57 in1001.4 mb - 0.00 in0.0 mm 0.36 in9.1 mm
09:50 PM 33.1°F0.6°C 31.8°F-0.1°C 95% 4.6 mph NW7.4 kmh NW 4.6 mph7.4 kmh 29.58 in1001.7 mb - 0.00 in0.0 mm 0.36 in9.1 mm
09:55 PM 33.1°F0.6°C 31.8°F-0.1°C 95% 6.9 mph NW11.1 kmh NW 8.1 mph13.0 kmh 29.58 in1001.7 mb - 0.00 in0.0 mm 0.36 in9.1 mm
10:00 PM 33.1°F0.6°C 31.9°F-0.1°C 95% 6.9 mph NW11.1 kmh NW 6.9 mph11.1 kmh 29.58 in1001.7 mb - 0.00 in0.0 mm 0.36 in9.1 mm
10:10 PM 33.3°F0.7°C 32.0°F0.0°C 95% 6.9 mph NNW11.1 kmh NNW 10.4 mph16.7 kmh 29.58 in1001.7 mb - 0.00 in0.0 mm 0.36 in9.1 mm
10:15 PM 33.3°F0.7°C 32.0°F0.0°C 95% 5.8 mph NNW9.3 kmh NNW 6.9 mph11.1 kmh 29.58 in1001.7 mb - 0.00 in0.0 mm 0.36 in9.1 mm
10:20 PM 33.3°F0.7°C 32.0°F0.0°C 95% 5.8 mph NW9.3 kmh NW 9.2 mph14.8 kmh 29.58 in1001.7 mb - 0.00 in0.0 mm 0.36 in9.1 mm
10:25 PM 33.4°F0.8°C 32.1°F0.1°C 95% 5.8 mph NNW9.3 kmh NNW 8.1 mph13.0 kmh 29.58 in1001.7 mb - 0.00 in0.0 mm 0.36 in9.1 mm
10:30 PM 33.4°F0.8°C 32.2°F0.1°C 95% 6.9 mph NW11.1 kmh NW 9.2 mph14.8 kmh 29.58 in1001.7 mb - 0.00 in0.0 mm 0.36 in9.1 mm
10:35 PM 33.4°F0.8°C 32.2°F0.1°C 95% 5.8 mph NW9.3 kmh NW 4.6 mph7.4 kmh 29.58 in1001.7 mb - 0.00 in0.0 mm 0.36 in9.1 mm
10:40 PM 33.4°F0.8°C 32.2°F0.1°C 95% 5.8 mph NNW9.3 kmh NNW 5.8 mph9.3 kmh 29.58 in1001.7 mb - 0.00 in0.0 mm 0.36 in9.1 mm
10:45 PM 33.4°F0.8°C 32.2°F0.1°C 95% 5.8 mph NNW9.3 kmh NNW 5.8 mph9.3 kmh 29.58 in1001.7 mb - 0.00 in0.0 mm 0.36 in9.1 mm
10:50 PM 33.6°F0.9°C 32.3°F0.2°C 95% 6.9 mph NW11.1 kmh NW 8.1 mph13.0 kmh 29.58 in1001.7 mb - 0.00 in0.0 mm 0.36 in9.1 mm
10:55 PM 33.6°F0.9°C 32.1°F0.1°C 94% 6.9 mph NNW11.1 kmh NNW 6.9 mph11.1 kmh 29.58 in1001.7 mb - 0.00 in0.0 mm 0.36 in9.1 mm
11:00 PM 33.8°F1.0°C 32.3°F0.2°C 94% 8.1 mph NW13.0 kmh NW 9.2 mph14.8 kmh 29.59 in1002.0 mb - 0.00 in0.0 mm 0.36 in9.1 mm
11:10 PM 33.8°F1.0°C 32.3°F0.2°C 94% 5.8 mph NW9.3 kmh NW 8.1 mph13.0 kmh 29.59 in1002.0 mb - 0.00 in0.0 mm 0.36 in9.1 mm
11:15 PM 33.8°F1.0°C 32.3°F0.2°C 94% 6.9 mph NNW11.1 kmh NNW 8.1 mph13.0 kmh 29.59 in1002.0 mb - 0.00 in0.0 mm 0.36 in9.1 mm
11:20 PM 33.8°F1.0°C 32.3°F0.2°C 94% 8.1 mph N13.0 kmh N 8.1 mph13.0 kmh 29.58 in1001.7 mb - 0.00 in0.0 mm 0.36 in9.1 mm
11:25 PM 34.0°F1.1°C 32.4°F0.2°C 94% 4.6 mph N7.4 kmh N 5.8 mph9.3 kmh 29.58 in1001.7 mb - 0.00 in0.0 mm 0.36 in9.1 mm
11:30 PM 33.8°F1.0°C 32.0°F0.0°C 93% 4.6 mph NNW7.4 kmh NNW 5.8 mph9.3 kmh 29.58 in1001.7 mb - 0.00 in0.0 mm 0.36 in9.1 mm
11:35 PM 33.8°F1.0°C 32.3°F0.2°C 94% 5.8 mph NNE9.3 kmh NNE 5.8 mph9.3 kmh 29.59 in1002.0 mb - 0.00 in0.0 mm 0.36 in9.1 mm
11:40 PM 33.8°F1.0°C 32.3°F0.2°C 94% 4.6 mph NNW7.4 kmh NNW 4.6 mph7.4 kmh 29.59 in1002.0 mb - 0.00 in0.0 mm 0.36 in9.1 mm
11:45 PM 33.8°F1.0°C 32.3°F0.2°C 94% 3.5 mph N5.6 kmh N 4.6 mph7.4 kmh 29.59 in1002.0 mb - 0.00 in0.0 mm 0.36 in9.1 mm
11:50 PM 33.6°F0.9°C 32.1°F0.1°C 94% 4.6 mph NNW7.4 kmh NNW 5.8 mph9.3 kmh 29.59 in1002.0 mb - 0.00 in0.0 mm 0.36 in9.1 mm
11:55 PM 33.6°F0.9°C 32.1°F0.1°C 94% 3.5 mph N5.6 kmh N 4.6 mph7.4 kmh 29.59 in1002.0 mb - 0.00 in0.0 mm 0.36 in9.1 mm